Time;durP1;ratioP1;P1;durP2;ratioP2;P2;SDS_P1;SDS_P2;PMS_P1;PMS_P2;Temp;Humidity;BMP_temperature;BMP_pressure;BME280_temperature;BME280_humidity;BME280_pressure;Samples;Min_cycle;Max_cycle;Signal;HPM_P1;HPM_P2
2022/10/05 00:00:54;;;;;;;;;;;6.40;99.90;;;;;;4226921;28;19919;-62
2022/10/05 00:02:55;;;;;;;;;;;6.40;99.90;;;;;;4228431;28;19917;-62
2022/10/05 00:04:56;;;;;;;;;;;6.30;99.90;;;;;;4227864;28;19912;-61
2022/10/05 00:07:05;;;;;;;;;;;6.30;99.90;;;;;;4228411;28;20422;-62
2022/10/05 00:09:12;;;;;;;;;;;6.30;99.90;;;;;;4228081;28;19965;-61
2022/10/05 00:11:13;;;;;;;;;;;6.20;99.90;;;;;;4227324;28;20411;-62
2022/10/05 00:13:16;;;;;;;;;;;6.20;99.90;;;;;;4227927;28;19956;-63
2022/10/05 00:15:18;;;;;;;;;;;6.10;99.90;;;;;;4229141;28;19908;-61
2022/10/05 00:17:20;;;;;;;;;;;6.10;99.90;;;;;;4227558;28;20020;-61
2022/10/05 00:19:29;;;;;;;;;;;6.10;99.90;;;;;;4228756;28;19916;-63
2022/10/05 00:21:32;;;;;;;;;;;6.10;99.90;;;;;;4215496;28;19989;-61
2022/10/05 00:23:33;;;;;;;;;;;6.00;99.90;;;;;;4227646;28;19912;-62
2022/10/05 00:25:34;;;;;;;;;;;6.00;99.90;;;;;;4227553;28;20055;-59
2022/10/05 00:27:36;;;;;;;;;;;6.00;99.90;;;;;;4228991;28;19917;-62
2022/10/05 00:29:37;;;;;;;;;;;6.00;99.90;;;;;;4227023;28;19969;-61
2022/10/05 00:31:38;;;;;;;;;;;6.00;99.90;;;;;;4228765;28;19907;-65
2022/10/05 00:33:39;;;;;;;;;;;6.00;99.90;;;;;;4227397;28;19911;-61
2022/10/05 00:35:40;;;;;;;;;;;5.90;99.90;;;;;;4228107;28;19912;-61
2022/10/05 00:37:41;;;;;;;;;;;5.90;99.90;;;;;;4228056;28;19908;-61
2022/10/05 00:39:42;;;;;;;;;;;5.90;99.90;;;;;;4228065;28;19953;-63
2022/10/05 00:42:02;;;;;;;;;;;5.90;99.90;;;;;;4229673;28;19919;-61
2022/10/05 00:44:18;;;;;;;;;;;5.80;99.90;;;;;;4230219;27;19941;-62
2022/10/05 00:46:29;;;;;;;;;;;5.80;99.90;;;;;;4217661;28;19911;-62
2022/10/05 00:48:35;;;;;;;;;;;5.70;99.90;;;;;;4230872;28;19941;-62
2022/10/05 00:50:36;;;;;;;;;;;5.70;99.90;;;;;;4231219;28;19920;-60
2022/10/05 00:52:37;;;;;;;;;;;5.70;99.90;;;;;;4231040;28;20375;-62
2022/10/05 00:54:44;;;;;;;;;;;5.70;99.90;;;;;;4231642;28;19918;-62
2022/10/05 00:56:53;;;;;;;;;;;5.70;99.90;;;;;;4230577;28;19974;-62
2022/10/05 00:59:13;;;;;;;;;;;5.70;99.90;;;;;;4231543;28;20379;-62
2022/10/05 01:01:15;;;;;;;;;;;5.70;99.90;;;;;;4230689;28;19924;-62
2022/10/05 01:03:35;;;;;;;;;;;5.70;99.90;;;;;;4231527;28;19977;-61
2022/10/05 01:05:43;;;;;;;;;;;5.70;99.90;;;;;;4228908;28;19949;-61
2022/10/05 01:07:49;;;;;;;;;;;5.70;99.90;;;;;;4231620;28;20413;-62
2022/10/05 01:09:50;;;;;;;;;;;5.70;99.90;;;;;;4230661;28;20385;-59
2022/10/05 01:11:56;;;;;;;;;;;5.70;99.90;;;;;;4231820;28;19915;-62
2022/10/05 01:14:23;;;;;;;;;;;5.70;99.90;;;;;;4230590;28;19938;-61
2022/10/05 01:16:44;;;;;;;;;;;5.70;99.90;;;;;;4189708;28;20401;-62
2022/10/05 01:18:45;;;;;;;;;;;5.70;99.90;;;;;;4225870;28;19915;-62
2022/10/05 01:21:05;;;;;;;;;;;5.70;99.90;;;;;;4231298;28;20376;-61
2022/10/05 01:23:17;;;;;;;;;;;5.80;99.90;;;;;;4230204;27;19912;-62
2022/10/05 01:25:37;;;;;;;;;;;5.80;99.90;;;;;;4230180;28;19907;-63
2022/10/05 01:27:40;;;;;;;;;;;5.70;99.90;;;;;;4230914;28;19907;-62
2022/10/05 01:30:04;;;;;;;;;;;5.70;99.90;;;;;;4230524;28;19908;-62
2022/10/05 01:32:24;;;;;;;;;;;5.70;99.90;;;;;;4219874;28;19916;-61
2022/10/05 01:34:48;;;;;;;;;;;5.60;99.90;;;;;;4229774;28;19964;-63
2022/10/05 01:36:49;;;;;;;;;;;5.60;99.90;;;;;;4205008;28;19912;-63
2022/10/05 01:38:53;;;;;;;;;;;5.60;99.90;;;;;;4230004;28;20015;-62
2022/10/05 01:41:12;;;;;;;;;;;5.60;99.90;;;;;;4230757;28;19919;-62
2022/10/05 01:43:13;;;;;;;;;;;5.50;99.90;;;;;;4230761;28;19919;-64
2022/10/05 01:45:22;;;;;;;;;;;5.50;99.90;;;;;;4230857;28;21457;-64
2022/10/05 01:47:42;;;;;;;;;;;5.40;99.90;;;;;;4230154;28;19992;-61
2022/10/05 01:49:46;;;;;;;;;;;5.40;99.90;;;;;;4230734;28;20318;-61
2022/10/05 01:51:47;;;;;;;;;;;5.40;99.90;;;;;;4229550;28;20268;-61
2022/10/05 01:53:51;;;;;;;;;;;5.30;99.90;;;;;;4230471;28;19912;-61
2022/10/05 01:55:52;;;;;;;;;;;5.30;99.90;;;;;;4229687;28;19912;-62
2022/10/05 01:58:14;;;;;;;;;;;5.30;99.90;;;;;;4230567;28;19961;-61
2022/10/05 02:00:16;;;;;;;;;;;5.30;99.90;;;;;;4229552;28;19973;-63
2022/10/05 02:02:19;;;;;;;;;;;5.30;99.90;;;;;;4230381;28;19916;-61
2022/10/05 02:04:20;;;;;;;;;;;5.30;99.90;;;;;;4229613;28;19912;-61
2022/10/05 02:06:25;;;;;;;;;;;5.20;99.90;;;;;;4230169;28;19908;-62
2022/10/05 02:08:30;;;;;;;;;;;5.20;99.90;;;;;;4228681;28;19988;-61
2022/10/05 02:10:36;;;;;;;;;;;5.10;99.90;;;;;;4229623;28;19911;-61
2022/10/05 02:12:37;;;;;;;;;;;5.20;99.90;;;;;;4230872;28;19957;-61
2022/10/05 02:14:41;;;;;;;;;;;5.10;99.90;;;;;;4229579;28;19912;-61
2022/10/05 02:16:42;;;;;;;;;;;5.10;99.90;;;;;;4230211;28;20252;-62
2022/10/05 02:18:52;;;;;;;;;;;5.10;99.90;;;;;;4229249;28;19976;-65
2022/10/05 02:20:54;;;;;;;;;;;5.10;99.90;;;;;;4230608;28;19992;-61
2022/10/05 02:22:58;;;;;;;;;;;5.10;99.90;;;;;;4229355;28;20296;-61
2022/10/05 02:25:01;;;;;;;;;;;5.10;99.90;;;;;;4229836;28;20345;-61
2022/10/05 02:27:04;;;;;;;;;;;5.10;99.90;;;;;;4228163;28;20412;-62
2022/10/05 02:29:06;;;;;;;;;;;5.10;99.90;;;;;;4230603;28;20345;-62
2022/10/05 02:31:09;;;;;;;;;;;5.10;99.90;;;;;;4229074;28;19985;-60
2022/10/05 02:33:16;;;;;;;;;;;5.10;99.90;;;;;;4229822;28;19911;-62
2022/10/05 02:35:18;;;;;;;;;;;5.10;99.90;;;;;;4229131;28;19912;-61
2022/10/05 02:37:22;;;;;;;;;;;5.10;99.90;;;;;;4230169;28;20284;-61
2022/10/05 02:39:37;;;;;;;;;;;5.10;99.90;;;;;;4229422;28;19911;-61
2022/10/05 02:41:44;;;;;;;;;;;5.10;99.90;;;;;;4228322;28;20448;-60
2022/10/05 02:43:45;;;;;;;;;;;5.10;99.90;;;;;;4229356;28;20329;-62
2022/10/05 02:45:46;;;;;;;;;;;5.00;99.90;;;;;;4229673;28;19916;-61
2022/10/05 02:47:47;;;;;;;;;;;5.00;99.90;;;;;;4228575;28;19916;-61
2022/10/05 02:49:53;;;;;;;;;;;4.90;99.90;;;;;;4229434;28;20010;-61
2022/10/05 02:52:02;;;;;;;;;;;4.90;99.90;;;;;;4229302;28;19911;-60
2022/10/05 02:54:03;;;;;;;;;;;4.90;99.90;;;;;;4229744;28;20326;-62
2022/10/05 02:56:04;;;;;;;;;;;4.90;99.90;;;;;;4227721;27;19908;-61
2022/10/05 02:58:26;;;;;;;;;;;4.80;99.90;;;;;;4213286;28;20287;-60
2022/10/05 03:00:30;;;;;;;;;;;4.80;99.90;;;;;;4228903;28;19919;-62
2022/10/05 03:02:39;;;;;;;;;;;4.80;99.90;;;;;;4229172;28;19908;-60
2022/10/05 03:04:52;;;;;;;;;;;4.80;99.90;;;;;;4228482;28;19912;-60
2022/10/05 03:07:02;;;;;;;;;;;4.90;99.90;;;;;;4229057;28;19912;-61
2022/10/05 03:09:04;;;;;;;;;;;4.80;99.90;;;;;;4229070;28;20272;-61
2022/10/05 03:11:11;;;;;;;;;;;4.80;99.90;;;;;;4228041;28;19933;-61
2022/10/05 03:13:20;;;;;;;;;;;4.80;99.90;;;;;;4229049;28;19912;-63
2022/10/05 03:15:35;;;;;;;;;;;4.80;99.90;;;;;;4228446;28;19908;-63
2022/10/05 03:17:43;;;;;;;;;;;4.80;99.90;;;;;;4227546;28;20399;-60
2022/10/05 03:19:53;;;;;;;;;;;4.80;99.90;;;;;;4228583;28;19968;-61
2022/10/05 03:22:13;;;;;;;;;;;4.80;99.90;;;;;;4229015;28;19919;-60
2022/10/05 03:24:38;;;;;;;;;;;4.80;99.90;;;;;;4229304;28;20391;-57
2022/10/05 03:26:38;;;;;;;;;;;4.80;99.90;;;;;;4227523;28;20369;-59
2022/10/05 03:28:49;;;;;;;;;;;4.80;99.90;;;;;;4228281;28;19915;-62
2022/10/05 03:31:02;;;;;;;;;;;4.80;99.90;;;;;;4237002;27;19941;-60
2022/10/05 03:33:12;;;;;;;;;;;4.80;99.90;;;;;;4228683;28;20460;-61
2022/10/05 03:35:28;;;;;;;;;;;4.90;99.90;;;;;;4228152;28;19912;-60
2022/10/05 03:37:42;;;;;;;;;;;4.90;99.90;;;;;;4228881;28;19915;-60
2022/10/05 03:39:45;;;;;;;;;;;4.90;99.90;;;;;;4227713;28;19933;-60
2022/10/05 03:41:53;;;;;;;;;;;4.90;99.90;;;;;;4228591;28;19923;-59
2022/10/05 03:44:19;;;;;;;;;;;4.90;99.90;;;;;;4227913;27;20004;-60
2022/10/05 03:46:20;;;;;;;;;;;5.00;99.90;;;;;;4228723;28;19916;-60
2022/10/05 03:48:32;;;;;;;;;;;5.00;99.90;;;;;;4227919;28;19911;-59
2022/10/05 03:50:36;;;;;;;;;;;5.00;99.90;;;;;;4228804;28;19957;-61
2022/10/05 03:52:41;;;;;;;;;;;5.00;99.90;;;;;;4243290;27;19915;-61
2022/10/05 03:54:54;;;;;;;;;;;5.00;99.90;;;;;;4229148;28;19916;-61
2022/10/05 03:57:16;;;;;;;;;;;5.00;99.90;;;;;;4227856;28;19907;-63
2022/10/05 03:59:20;;;;;;;;;;;4.90;99.90;;;;;;4228792;28;19924;-63
2022/10/05 04:01:24;;;;;;;;;;;4.90;99.90;;;;;;4227184;28;19938;-62
2022/10/05 04:03:32;;;;;;;;;;;4.90;99.90;;;;;;4228548;28;19908;-61
2022/10/05 04:05:45;;;;;;;;;;;4.90;99.90;;;;;;4227541;28;19916;-60
2022/10/05 04:07:57;;;;;;;;;;;4.90;99.90;;;;;;4228958;27;19923;-60
2022/10/05 04:09:59;;;;;;;;;;;4.80;99.90;;;;;;4227524;28;19965;-61
2022/10/05 04:12:12;;;;;;;;;;;4.90;99.90;;;;;;4228539;28;19920;-62
2022/10/05 04:14:14;;;;;;;;;;;4.80;99.90;;;;;;4227664;28;20903;-62
2022/10/05 04:16:21;;;;;;;;;;;4.80;99.90;;;;;;4227552;28;20309;-61
2022/10/05 04:18:43;;;;;;;;;;;4.80;99.90;;;;;;4227634;28;20348;-62
2022/10/05 04:20:47;;;;;;;;;;;4.80;99.90;;;;;;4228436;28;19908;-60
2022/10/05 04:23:01;;;;;;;;;;;4.80;99.90;;;;;;4227801;28;19912;-60
2022/10/05 04:25:07;;;;;;;;;;;4.80;99.90;;;;;;4228804;28;19907;-62
2022/10/05 04:27:13;;;;;;;;;;;4.80;99.90;;;;;;4225831;28;20361;-63
2022/10/05 04:29:27;;;;;;;;;;;4.80;99.90;;;;;;4223195;28;19912;-61
2022/10/05 04:31:28;;;;;;;;;;;4.80;99.90;;;;;;4227116;28;19965;-61
2022/10/05 04:33:30;;;;;;;;;;;4.80;99.90;;;;;;4227373;28;19916;-61
2022/10/05 04:35:56;;;;;;;;;;;4.70;99.90;;;;;;4224703;28;19957;-64
2022/10/05 04:37:58;;;;;;;;;;;4.70;99.90;;;;;;4227854;28;19937;-62
2022/10/05 04:40:11;;;;;;;;;;;4.70;99.90;;;;;;4227182;28;19912;-62
2022/10/05 04:42:18;;;;;;;;;;;4.80;99.90;;;;;;4227354;28;19980;-61
2022/10/05 04:44:22;;;;;;;;;;;4.80;99.90;;;;;;4226722;28;19953;-62
2022/10/05 04:46:42;;;;;;;;;;;4.90;99.90;;;;;;4227876;28;20355;-61
2022/10/05 04:48:58;;;;;;;;;;;5.20;99.90;;;;;;4210943;28;19908;-62
2022/10/05 04:51:11;;;;;;;;;;;5.60;99.90;;;;;;4218900;28;19916;-63
2022/10/05 04:53:18;;;;;;;;;;;5.90;99.90;;;;;;4227062;28;19957;-61
2022/10/05 04:55:18;;;;;;;;;;;6.30;99.90;;;;;;4228718;28;19911;-64
2022/10/05 04:57:25;;;;;;;;;;;6.70;99.90;;;;;;4227488;28;19974;-62
2022/10/05 04:59:35;;;;;;;;;;;7.00;99.90;;;;;;4227118;28;19920;-60
2022/10/05 05:01:36;;;;;;;;;;;7.40;99.90;;;;;;4227030;28;19911;-62
2022/10/05 05:03:40;;;;;;;;;;;7.70;99.90;;;;;;4227252;28;19938;-62
2022/10/05 05:05:41;;;;;;;;;;;8.00;99.90;;;;;;4225975;28;20357;-66
2022/10/05 05:08:00;;;;;;;;;;;8.50;99.90;;;;;;4226591;28;19920;-64
2022/10/05 05:10:29;;;;;;;;;;;8.70;99.90;;;;;;4226714;28;19916;-58
2022/10/05 05:12:53;;;;;;;;;;;8.50;99.90;;;;;;4227726;28;19973;-63
2022/10/05 05:15:04;;;;;;;;;;;8.90;99.90;;;;;;4178164;28;19911;-62
2022/10/05 05:17:13;;;;;;;;;;;9.30;99.90;;;;;;4227900;28;19923;-62
2022/10/05 05:19:27;;;;;;;;;;;9.50;99.90;;;;;;4226879;28;19912;-62
2022/10/05 05:21:41;;;;;;;;;;;9.80;99.90;;;;;;4228070;28;19916;-62
2022/10/05 05:23:56;;;;;;;;;;;10.10;99.90;;;;;;4226991;28;19908;-61
2022/10/05 05:26:10;;;;;;;;;;;10.50;99.90;;;;;;4228033;28;20249;-61
2022/10/05 05:28:16;;;;;;;;;;;10.70;99.90;;;;;;4228549;28;20318;-61
2022/10/05 05:30:35;;;;;;;;;;;10.80;99.90;;;;;;4230748;28;20317;-61
2022/10/05 05:32:52;;;;;;;;;;;10.70;99.90;;;;;;4229545;28;19962;-61
2022/10/05 05:35:01;;;;;;;;;;;10.60;99.90;;;;;;4230942;28;19976;-61
2022/10/05 05:37:02;;;;;;;;;;;10.80;99.90;;;;;;4229855;28;19924;-61
2022/10/05 05:39:12;;;;;;;;;;;11.00;99.90;;;;;;4231021;28;19907;-61
2022/10/05 05:41:19;;;;;;;;;;;11.30;99.90;;;;;;4229416;28;19912;-61
2022/10/05 05:43:23;;;;;;;;;;;11.70;99.90;;;;;;4230721;28;19961;-62
2022/10/05 05:45:26;;;;;;;;;;;12.10;99.90;;;;;;4229629;28;19908;-61
2022/10/05 05:47:34;;;;;;;;;;;12.60;99.90;;;;;;4230836;28;19933;-61
2022/10/05 05:49:53;;;;;;;;;;;13.20;99.90;;;;;;4229628;28;19907;-62
2022/10/05 05:52:00;;;;;;;;;;;13.60;99.90;;;;;;4230831;28;19913;-61
2022/10/05 05:54:16;;;;;;;;;;;13.70;99.90;;;;;;4229453;28;20350;-62
2022/10/05 05:56:29;;;;;;;;;;;13.70;99.90;;;;;;4230920;28;20401;-60
2022/10/05 05:58:32;;;;;;;;;;;13.70;99.90;;;;;;4229580;28;20424;-62
2022/10/05 06:00:35;;;;;;;;;;;13.80;99.90;;;;;;4230347;28;19957;-62
2022/10/05 06:02:48;;;;;;;;;;;13.70;99.90;;;;;;4228999;28;20278;-61
2022/10/05 06:04:52;;;;;;;;;;;13.60;99.90;;;;;;4230531;28;19937;-62
2022/10/05 06:06:55;;;;;;;;;;;13.20;99.90;;;;;;4229208;28;19915;-63
2022/10/05 06:08:59;;;;;;;;;;;13.00;99.90;;;;;;4230218;28;19934;-62
2022/10/05 06:11:02;;;;;;;;;;;12.40;99.90;;;;;;4229262;28;19909;-62
2022/10/05 06:13:05;;;;;;;;;;;12.40;99.90;;;;;;4229904;28;19957;-61
2022/10/05 06:15:18;;;;;;;;;;;12.30;99.90;;;;;;4229539;28;19908;-61
2022/10/05 06:17:23;;;;;;;;;;;12.40;99.90;;;;;;4229937;28;20297;-62
2022/10/05 06:19:25;;;;;;;;;;;12.50;99.90;;;;;;4229527;28;19907;-62
2022/10/05 06:21:45;;;;;;;;;;;12.40;99.90;;;;;;4228987;28;19908;-61
2022/10/05 06:23:49;;;;;;;;;;;13.00;99.90;;;;;;4229575;28;19904;-62
2022/10/05 06:26:01;;;;;;;;;;;13.40;99.90;;;;;;4230040;28;19915;-62
2022/10/05 06:28:12;;;;;;;;;;;13.70;99.90;;;;;;4229149;28;20230;-61
2022/10/05 06:30:14;;;;;;;;;;;14.00;99.90;;;;;;4229568;28;19915;-63
2022/10/05 06:32:24;;;;;;;;;;;14.50;99.90;;;;;;4229194;28;20256;-62
2022/10/05 06:34:47;;;;;;;;;;;14.60;99.90;;;;;;4229121;28;19908;-61
2022/10/05 06:36:51;;;;;;;;;;;14.50;99.90;;;;;;4229051;28;19904;-60
2022/10/05 06:39:15;;;;;;;;;;;14.70;99.90;;;;;;4228535;28;20375;-60
2022/10/05 06:41:22;;;;;;;;;;;14.80;99.90;;;;;;4190341;27;19904;-61
2022/10/05 06:43:23;;;;;;;;;;;14.90;99.90;;;;;;4229501;28;19969;-61
2022/10/05 06:45:24;;;;;;;;;;;15.10;99.90;;;;;;4229068;28;19904;-62
2022/10/05 06:47:32;;;;;;;;;;;15.10;99.90;;;;;;4229307;28;19908;-63
2022/10/05 06:49:48;;;;;;;;;;;15.40;99.90;;;;;;4229265;28;19904;-62
2022/10/05 06:51:58;;;;;;;;;;;15.90;99.90;;;;;;4229134;28;20278;-62
2022/10/05 06:54:08;;;;;;;;;;;16.30;99.90;;;;;;4229104;28;20415;-61
2022/10/05 06:56:16;;;;;;;;;;;16.60;99.50;;;;;;4229397;28;19908;-62
2022/10/05 06:58:26;;;;;;;;;;;16.60;99.20;;;;;;4226974;28;20349;-62
2022/10/05 07:00:32;;;;;;;;;;;16.80;99.90;;;;;;4228877;28;19924;-62
2022/10/05 07:02:38;;;;;;;;;;;17.20;99.20;;;;;;4228709;28;19941;-62
2022/10/05 07:04:48;;;;;;;;;;;17.20;98.20;;;;;;4228608;28;19912;-60
2022/10/05 07:06:56;;;;;;;;;;;17.00;97.80;;;;;;4228842;28;19965;-64
2022/10/05 07:09:19;;;;;;;;;;;17.00;99.20;;;;;;4228548;28;19911;-63
2022/10/05 07:11:27;;;;;;;;;;;17.20;99.50;;;;;;4228413;28;19937;-62
2022/10/05 07:13:43;;;;;;;;;;;17.50;97.90;;;;;;4228956;28;19916;-63
2022/10/05 07:15:50;;;;;;;;;;;17.80;97.70;;;;;;4228372;28;19965;-64
2022/10/05 07:17:57;;;;;;;;;;;17.40;96.30;;;;;;4228609;28;19908;-66
2022/10/05 07:20:07;;;;;;;;;;;17.20;97.30;;;;;;4228499;28;19969;-62
2022/10/05 07:22:18;;;;;;;;;;;16.70;96.90;;;;;;4228420;28;20413;-61
2022/10/05 07:24:29;;;;;;;;;;;16.60;98.30;;;;;;4228528;28;19961;-61
2022/10/05 07:26:30;;;;;;;;;;;16.60;98.70;;;;;;4228649;28;19915;-64
2022/10/05 07:28:31;;;;;;;;;;;16.80;97.80;;;;;;4228374;28;19908;-61
2022/10/05 07:30:48;;;;;;;;;;;16.50;97.40;;;;;;4228343;28;19912;-62
2022/10/05 07:33:04;;;;;;;;;;;16.30;97.70;;;;;;4228064;28;19924;-61
2022/10/05 07:37:56;;;;;;;;;;;16.10;98.10;;;;;;4227741;28;19957;-61
2022/10/05 07:40:09;;;;;;;;;;;16.20;98.00;;;;;;4227534;28;19957;-62
2022/10/05 07:42:18;;;;;;;;;;;16.20;97.70;;;;;;4227479;28;19912;-62
2022/10/05 07:44:38;;;;;;;;;;;16.30;98.30;;;;;;4228840;28;20309;-62
2022/10/05 07:46:50;;;;;;;;;;;16.20;98.50;;;;;;4225906;28;19908;-62
2022/10/05 07:48:54;;;;;;;;;;;16.30;99.90;;;;;;4228725;28;19960;-60
2022/10/05 07:51:14;;;;;;;;;;;16.30;99.00;;;;;;4227528;28;19908;-62
2022/10/05 07:53:21;;;;;;;;;;;16.30;99.00;;;;;;4228865;28;20363;-63
2022/10/05 07:55:22;;;;;;;;;;;16.20;98.90;;;;;;4228306;28;19976;-62
2022/10/05 07:57:29;;;;;;;;;;;16.10;99.90;;;;;;4228741;28;19912;-63
2022/10/05 07:59:43;;;;;;;;;;;15.50;99.80;;;;;;4227169;28;19919;-62
2022/10/05 08:01:46;;;;;;;;;;;15.30;99.70;;;;;;4228254;28;20425;-66
2022/10/05 08:03:51;;;;;;;;;;;15.20;99.90;;;;;;4227444;28;19961;-64
2022/10/05 08:05:52;;;;;;;;;;;15.30;99.90;;;;;;4228909;28;20487;-64
2022/10/05 08:08:02;;;;;;;;;;;15.30;99.90;;;;;;4227378;28;19907;-62
2022/10/05 08:10:14;;;;;;;;;;;15.40;99.90;;;;;;4228431;28;19969;-62
2022/10/05 08:12:27;;;;;;;;;;;15.20;99.90;;;;;;4227525;28;20392;-62
2022/10/05 08:14:40;;;;;;;;;;;15.00;99.90;;;;;;4228504;28;19961;-63
2022/10/05 08:16:42;;;;;;;;;;;14.90;99.90;;;;;;4225687;28;19993;-62
2022/10/05 08:18:47;;;;;;;;;;;14.70;99.90;;;;;;4228028;28;20014;-62
2022/10/05 08:20:50;;;;;;;;;;;14.60;99.90;;;;;;4227347;28;19911;-62
2022/10/05 08:22:56;;;;;;;;;;;14.40;99.90;;;;;;4227655;28;19907;-63
2022/10/05 08:25:08;;;;;;;;;;;14.30;99.90;;;;;;4226301;28;19908;-63
2022/10/05 08:27:29;;;;;;;;;;;14.30;99.90;;;;;;4228220;28;19912;-62
2022/10/05 08:29:30;;;;;;;;;;;14.40;99.90;;;;;;4226916;28;19912;-62
2022/10/05 08:31:32;;;;;;;;;;;14.30;99.90;;;;;;4227976;28;20287;-61
2022/10/05 08:33:39;;;;;;;;;;;14.10;99.90;;;;;;4225790;28;19916;-61
2022/10/05 08:35:42;;;;;;;;;;;14.10;99.90;;;;;;4227314;28;19953;-62
2022/10/05 08:37:44;;;;;;;;;;;14.00;99.90;;;;;;4226943;28;19915;-63
2022/10/05 08:40:04;;;;;;;;;;;14.20;99.90;;;;;;4227456;28;19912;-62
2022/10/05 08:42:19;;;;;;;;;;;14.30;99.90;;;;;;4227596;28;20673;-64
2022/10/05 08:44:41;;;;;;;;;;;14.20;99.90;;;;;;4227790;28;19912;-62
2022/10/05 08:47:05;;;;;;;;;;;14.50;99.90;;;;;;4227033;28;20409;-63
2022/10/05 08:49:35;;;;;;;;;;;14.40;99.90;;;;;;4213483;28;19945;-61
2022/10/05 08:51:47;;;;;;;;;;;14.50;99.90;;;;;;4226670;28;19933;-62
2022/10/05 08:53:54;;;;;;;;;;;14.60;99.90;;;;;;4227994;28;19911;-61
2022/10/05 08:56:09;;;;;;;;;;;14.40;99.90;;;;;;4227654;28;19912;-61
2022/10/05 08:58:19;;;;;;;;;;;14.30;99.90;;;;;;4228235;28;20306;-60
2022/10/05 09:00:20;;;;;;;;;;;14.20;99.90;;;;;;4226627;28;19993;-62
2022/10/05 09:02:36;;;;;;;;;;;14.10;99.90;;;;;;4228860;28;19908;-61
2022/10/05 09:04:43;;;;;;;;;;;14.10;99.90;;;;;;4230071;28;19907;-62
2022/10/05 09:06:50;;;;;;;;;;;14.20;99.90;;;;;;4231244;28;19908;-61
2022/10/05 09:09:02;;;;;;;;;;;14.20;99.90;;;;;;4230221;28;19969;-62
2022/10/05 09:11:15;;;;;;;;;;;14.30;99.90;;;;;;4231272;28;20013;-62
2022/10/05 09:13:30;;;;;;;;;;;14.40;99.90;;;;;;4229966;28;19923;-63
2022/10/05 09:15:31;;;;;;;;;;;14.40;99.90;;;;;;4231237;28;19937;-62
2022/10/05 09:17:38;;;;;;;;;;;14.20;99.90;;;;;;4229804;28;20417;-63
2022/10/05 09:19:49;;;;;;;;;;;14.10;99.90;;;;;;4231274;28;20753;-62
2022/10/05 09:22:23;;;;;;;;;;;14.30;99.90;;;;;;4230086;28;19930;-62
2022/10/05 09:24:23;;;;;;;;;;;14.40;99.90;;;;;;4186003;28;19908;-62
2022/10/05 09:26:43;;;;;;;;;;;14.30;99.90;;;;;;4230252;28;19914;-62
2022/10/05 09:28:56;;;;;;;;;;;14.30;99.90;;;;;;4231005;28;20056;-63
2022/10/05 09:31:04;;;;;;;;;;;14.40;99.90;;;;;;4229670;28;19908;-62
2022/10/05 09:33:31;;;;;;;;;;;14.50;99.90;;;;;;4230757;28;19920;-63
2022/10/05 09:35:35;;;;;;;;;;;14.50;99.90;;;;;;4229867;28;20325;-62
2022/10/05 09:37:54;;;;;;;;;;;14.50;99.90;;;;;;4230812;28;19908;-63
2022/10/05 09:40:12;;;;;;;;;;;14.50;99.90;;;;;;4229978;28;19912;-62
2022/10/05 09:42:16;;;;;;;;;;;14.60;99.90;;;;;;4230542;28;19953;-62
2022/10/05 09:44:30;;;;;;;;;;;14.60;99.90;;;;;;4229600;28;19972;-61
2022/10/05 09:46:50;;;;;;;;;;;14.60;99.90;;;;;;4230514;28;19956;-61
2022/10/05 09:49:00;;;;;;;;;;;14.60;99.90;;;;;;4229837;28;19908;-61
2022/10/05 09:51:19;;;;;;;;;;;14.70;99.90;;;;;;4230138;28;20059;-64
2022/10/05 09:53:23;;;;;;;;;;;14.80;99.90;;;;;;4229932;28;19961;-61
2022/10/05 09:55:30;;;;;;;;;;;14.60;99.90;;;;;;4230582;28;20367;-62
2022/10/05 09:57:40;;;;;;;;;;;14.70;99.90;;;;;;4229891;28;19912;-62
2022/10/05 09:59:41;;;;;;;;;;;14.50;99.90;;;;;;4229707;28;19920;-62
2022/10/05 10:02:05;;;;;;;;;;;14.50;99.90;;;;;;4227658;28;19911;-63
2022/10/05 10:04:13;;;;;;;;;;;14.60;99.90;;;;;;4218610;28;19925;-62
2022/10/05 10:06:20;;;;;;;;;;;14.70;99.90;;;;;;4229649;28;20326;-62
2022/10/05 10:08:27;;;;;;;;;;;14.60;99.90;;;;;;4230022;28;19937;-63
2022/10/05 10:10:57;;;;;;;;;;;14.70;99.90;;;;;;4228218;28;19919;-61
2022/10/05 10:13:18;;;;;;;;;;;14.70;99.90;;;;;;4176856;28;20297;-61
2022/10/05 10:15:19;;;;;;;;;;;14.80;99.90;;;;;;4229209;28;19972;-62
2022/10/05 10:17:29;;;;;;;;;;;15.10;99.80;;;;;;4229429;28;20368;-62
2022/10/05 10:19:50;;;;;;;;;;;15.10;99.00;;;;;;4229765;28;19911;-62
2022/10/05 10:22:00;;;;;;;;;;;15.00;99.90;;;;;;4228939;28;19916;-62
2022/10/05 10:24:06;;;;;;;;;;;15.00;98.90;;;;;;4229673;28;19912;-62
2022/10/05 10:26:21;;;;;;;;;;;15.00;99.10;;;;;;4229471;28;20719;-62
2022/10/05 10:28:30;;;;;;;;;;;15.00;99.10;;;;;;4229783;28;19912;-61
2022/10/05 10:30:41;;;;;;;;;;;15.00;99.40;;;;;;4228872;28;19912;-61
2022/10/05 10:32:42;;;;;;;;;;;15.00;99.10;;;;;;4229171;28;19993;-61
2022/10/05 10:35:09;;;;;;;;;;;15.00;99.30;;;;;;4228769;28;19918;-61
2022/10/05 10:37:10;;;;;;;;;;;14.90;99.00;;;;;;4225651;28;19908;-63
2022/10/05 10:39:30;;;;;;;;;;;14.90;98.50;;;;;;4228687;28;20284;-61
2022/10/05 10:41:33;;;;;;;;;;;15.00;98.40;;;;;;4229667;28;19911;-61
2022/10/05 10:43:53;;;;;;;;;;;14.90;98.30;;;;;;4228291;28;20253;-61
2022/10/05 10:46:16;;;;;;;;;;;14.90;98.20;;;;;;4228984;28;20007;-61
2022/10/05 10:48:17;;;;;;;;;;;14.90;98.00;;;;;;4228357;28;19965;-61
2022/10/05 10:50:18;;;;;;;;;;;15.00;98.40;;;;;;4229622;28;20007;-62
2022/10/05 10:52:21;;;;;;;;;;;15.00;98.90;;;;;;4228422;28;19919;-61
2022/10/05 10:54:41;;;;;;;;;;;15.10;98.20;;;;;;4229070;28;20353;-62
2022/10/05 10:56:47;;;;;;;;;;;15.30;98.30;;;;;;4228338;28;20285;-62
2022/10/05 10:59:07;;;;;;;;;;;15.40;98.20;;;;;;4229282;28;19981;-61
2022/10/05 11:01:30;;;;;;;;;;;15.40;97.80;;;;;;4227929;28;20338;-62
2022/10/05 11:03:49;;;;;;;;;;;15.20;97.80;;;;;;4229346;28;19908;-62
2022/10/05 11:05:53;;;;;;;;;;;15.20;98.70;;;;;;4228471;28;20324;-63
2022/10/05 11:08:09;;;;;;;;;;;15.20;98.60;;;;;;4229439;28;19977;-61
2022/10/05 11:10:19;;;;;;;;;;;15.30;98.30;;;;;;4228309;28;19911;-62
2022/10/05 11:12:32;;;;;;;;;;;15.40;98.70;;;;;;4229269;28;19920;-61
2022/10/05 11:14:36;;;;;;;;;;;15.40;99.10;;;;;;4228225;28;19912;-61
2022/10/05 11:16:48;;;;;;;;;;;15.50;99.10;;;;;;4227980;28;19911;-64
2022/10/05 11:18:49;;;;;;;;;;;15.50;98.30;;;;;;4228080;28;20612;-60
2022/10/05 11:20:50;;;;;;;;;;;15.60;98.40;;;;;;4229159;28;19918;-60
2022/10/05 11:23:18;;;;;;;;;;;15.70;98.60;;;;;;4228188;28;19915;-62
2022/10/05 11:25:31;;;;;;;;;;;15.80;98.50;;;;;;4197483;28;19908;-62
2022/10/05 11:27:37;;;;;;;;;;;15.90;98.00;;;;;;4227915;28;20286;-62
2022/10/05 11:29:58;;;;;;;;;;;15.80;98.20;;;;;;4228960;28;19908;-62
2022/10/05 11:32:01;;;;;;;;;;;15.80;97.70;;;;;;4227599;28;19912;-62
2022/10/05 11:34:11;;;;;;;;;;;15.70;97.50;;;;;;4228692;28;20326;-62
2022/10/05 11:36:26;;;;;;;;;;;15.90;97.40;;;;;;4227746;28;19972;-61
2022/10/05 11:38:30;;;;;;;;;;;16.00;97.30;;;;;;4228601;28;19908;-61
2022/10/05 11:40:41;;;;;;;;;;;15.80;97.40;;;;;;4227491;28;19912;-61
2022/10/05 11:43:00;;;;;;;;;;;15.70;97.80;;;;;;4228762;28;19912;-62
2022/10/05 11:45:14;;;;;;;;;;;15.70;98.20;;;;;;4226784;28;19953;-62
2022/10/05 11:47:23;;;;;;;;;;;15.60;98.40;;;;;;4227050;28;19907;-62
2022/10/05 11:49:44;;;;;;;;;;;15.50;98.40;;;;;;4227223;28;19912;-61
2022/10/05 11:52:05;;;;;;;;;;;15.50;98.80;;;;;;4186817;28;19912;-61
2022/10/05 11:54:24;;;;;;;;;;;15.40;98.70;;;;;;4227265;28;19949;-60
2022/10/05 11:56:31;;;;;;;;;;;15.50;98.50;;;;;;4228676;28;20780;-61
2022/10/05 11:58:35;;;;;;;;;;;15.50;98.10;;;;;;4227144;28;19912;-62
2022/10/05 12:00:42;;;;;;;;;;;15.60;98.00;;;;;;4228252;28;19924;-61
2022/10/05 12:02:46;;;;;;;;;;;15.70;97.90;;;;;;4227159;28;19961;-60
2022/10/05 12:04:53;;;;;;;;;;;15.70;97.70;;;;;;4228160;28;19911;-61
2022/10/05 12:07:10;;;;;;;;;;;15.70;97.60;;;;;;4227203;28;19957;-62
2022/10/05 12:09:20;;;;;;;;;;;15.70;97.80;;;;;;4228273;28;19912;-62
2022/10/05 12:11:24;;;;;;;;;;;15.70;97.80;;;;;;4227302;28;20274;-61
2022/10/05 12:13:34;;;;;;;;;;;15.80;97.60;;;;;;4228225;28;19923;-62
2022/10/05 12:15:37;;;;;;;;;;;15.70;97.30;;;;;;4227300;28;19965;-61
2022/10/05 12:17:46;;;;;;;;;;;15.80;97.40;;;;;;4228184;28;20428;-62
2022/10/05 12:19:49;;;;;;;;;;;16.00;97.40;;;;;;4227255;28;20302;-62
2022/10/05 12:21:58;;;;;;;;;;;16.10;97.10;;;;;;4226944;28;19908;-62
2022/10/05 12:24:14;;;;;;;;;;;16.00;97.30;;;;;;4227296;28;19908;-61
2022/10/05 12:26:14;;;;;;;;;;;16.10;98.10;;;;;;4228803;28;19908;-62
2022/10/05 12:28:17;;;;;;;;;;;16.20;97.50;;;;;;4227195;28;19908;-61
2022/10/05 12:30:30;;;;;;;;;;;16.30;97.50;;;;;;4228323;28;19957;-62
2022/10/05 12:32:32;;;;;;;;;;;16.30;97.20;;;;;;4227271;28;19924;-62
2022/10/05 12:34:36;;;;;;;;;;;16.30;97.70;;;;;;4228571;28;20261;-62
2022/10/05 12:36:47;;;;;;;;;;;16.10;97.10;;;;;;4227269;28;20338;-62
2022/10/05 12:39:02;;;;;;;;;;;16.10;97.60;;;;;;4231203;28;19908;-62
2022/10/05 12:41:13;;;;;;;;;;;16.00;97.70;;;;;;4230589;28;20332;-62